createdAt,value
2022-10-16T00:00:58.782Z,13.97
2022-10-16T00:03:30.775Z,13.96
2022-10-16T00:06:03.927Z,13.95
2022-10-16T00:08:36.553Z,13.99
2022-10-16T00:11:11.117Z,14.00
2022-10-16T00:13:46.105Z,13.98
2022-10-16T00:16:19.393Z,13.96
2022-10-16T00:18:51.406Z,13.98
2022-10-16T00:21:28.349Z,13.95
2022-10-16T00:24:05.766Z,13.94
2022-10-16T00:26:39.539Z,13.91
2022-10-16T00:29:11.596Z,13.93
2022-10-16T00:31:43.506Z,13.89
2022-10-16T00:34:15.560Z,13.86
2022-10-16T00:36:47.850Z,13.88
2022-10-16T00:39:20.619Z,13.79
2022-10-16T00:41:52.661Z,13.80
2022-10-16T00:44:56.863Z,13.78
2022-10-16T00:47:50.077Z,13.67
2022-10-16T00:50:35.879Z,13.68
2022-10-16T00:53:08.087Z,13.66
2022-10-16T00:55:42.489Z,13.67
2022-10-16T00:58:14.714Z,13.63
2022-10-16T01:00:46.733Z,13.56
2022-10-16T01:03:34.346Z,13.58
2022-10-16T01:09:23.218Z,13.51
2022-10-16T01:12:20.969Z,13.48
2022-10-16T01:18:39.207Z,13.46
2022-10-16T01:21:23.953Z,13.45
2022-10-16T01:24:19.637Z,13.48
2022-10-16T01:27:08.626Z,13.45
2022-10-16T01:29:54.176Z,13.38
2022-10-16T01:32:39.333Z,13.37
2022-10-16T01:35:24.390Z,13.36
2022-10-16T01:38:22.659Z,13.36
2022-10-16T01:41:22.159Z,13.33
2022-10-16T01:44:12.912Z,13.26
2022-10-16T01:46:50.069Z,13.25
2022-10-16T01:49:24.527Z,13.21
2022-10-16T01:54:36.695Z,13.17
2022-10-16T01:57:09.648Z,13.21
2022-10-16T01:59:52.823Z,13.21
2022-10-16T02:02:29.663Z,13.16
2022-10-16T02:05:32.538Z,13.21
2022-10-16T02:08:05.804Z,13.23
2022-10-16T02:10:38.923Z,13.19
2022-10-16T02:13:23.254Z,13.22
2022-10-16T02:15:55.208Z,13.21
2022-10-16T02:18:30.319Z,13.17
2022-10-16T02:21:24.825Z,13.12
2022-10-16T02:24:12.842Z,13.12
2022-10-16T02:27:12.992Z,13.15
2022-10-16T02:29:51.516Z,13.19
2022-10-16T02:32:31.581Z,13.21
2022-10-16T02:35:05.447Z,13.20
2022-10-16T02:37:39.676Z,13.19
2022-10-16T02:40:12.373Z,13.07
2022-10-16T02:42:44.825Z,13.08
2022-10-16T02:45:16.779Z,13.02
2022-10-16T02:47:49.530Z,13.01
2022-10-16T02:50:21.805Z,13.04
2022-10-16T02:52:53.986Z,13.00
2022-10-16T02:55:25.928Z,12.96
2022-10-16T02:57:58.111Z,13.02
2022-10-16T03:00:30.127Z,12.99
2022-10-16T03:03:02.119Z,13.00
2022-10-16T03:05:34.127Z,12.99
2022-10-16T03:08:06.200Z,12.99
2022-10-16T03:10:38.198Z,12.93
2022-10-16T03:13:10.217Z,12.96
2022-10-16T03:15:42.137Z,13.02
2022-10-16T03:18:14.212Z,13.06
2022-10-16T03:20:46.251Z,13.06
2022-10-16T03:23:18.383Z,13.09
2022-10-16T03:25:50.391Z,13.03
2022-10-16T03:28:22.515Z,13.06
2022-10-16T03:30:54.465Z,13.08
2022-10-16T03:33:26.470Z,12.96
2022-10-16T03:35:58.483Z,12.99
2022-10-16T03:38:30.496Z,13.01
2022-10-16T03:41:02.626Z,13.06
2022-10-16T03:43:34.810Z,13.11
2022-10-16T03:46:06.762Z,13.12
2022-10-16T03:48:38.750Z,13.16
2022-10-16T03:51:10.820Z,13.08
2022-10-16T03:53:42.805Z,13.09
2022-10-16T03:56:14.713Z,13.11
2022-10-16T03:58:46.719Z,13.09
2022-10-16T04:01:18.695Z,13.04
2022-10-16T04:03:50.706Z,13.07
2022-10-16T04:06:22.755Z,12.99
2022-10-16T04:08:54.698Z,13.05
2022-10-16T04:11:26.580Z,13.10
2022-10-16T04:13:58.625Z,13.13
2022-10-16T04:16:30.608Z,13.13
2022-10-16T04:19:03.104Z,13.16
2022-10-16T04:21:38.274Z,13.21
2022-10-16T04:24:11.671Z,13.20
2022-10-16T04:26:43.588Z,13.23
2022-10-16T04:29:15.492Z,13.18
2022-10-16T04:31:48.057Z,13.13
2022-10-16T04:34:20.010Z,13.11
2022-10-16T04:36:51.903Z,13.11
2022-10-16T04:39:23.826Z,13.08
2022-10-16T04:41:55.715Z,12.99
2022-10-16T04:44:27.668Z,13.04
2022-10-16T04:46:59.588Z,13.00
2022-10-16T04:49:31.574Z,13.01
2022-10-16T04:52:03.660Z,13.07
2022-10-16T04:54:35.714Z,13.10
2022-10-16T04:57:07.692Z,13.15
2022-10-16T04:59:39.647Z,13.10
2022-10-16T05:02:11.533Z,13.10
2022-10-16T05:04:43.475Z,13.06
2022-10-16T05:07:15.367Z,13.12
2022-10-16T05:09:47.333Z,13.10
2022-10-16T05:12:21.516Z,13.14
2022-10-16T05:14:53.498Z,13.22
2022-10-16T05:17:28.909Z,13.22
2022-10-16T05:20:01.141Z,13.30
2022-10-16T05:22:33.135Z,13.33
2022-10-16T05:25:05.675Z,13.37
2022-10-16T05:27:37.738Z,13.43
2022-10-16T05:30:12.394Z,13.40
2022-10-16T05:32:52.159Z,13.35
2022-10-16T05:35:24.204Z,13.45
2022-10-16T05:37:56.215Z,13.51
2022-10-16T05:40:28.151Z,13.49
2022-10-16T05:43:00.045Z,13.53
2022-10-16T05:45:32.228Z,13.57
2022-10-16T05:48:04.437Z,13.64
2022-10-16T05:50:36.393Z,13.64
2022-10-16T05:53:08.335Z,13.63
2022-10-16T05:55:40.290Z,13.70
2022-10-16T05:58:12.187Z,13.68
2022-10-16T06:00:44.205Z,13.72
2022-10-16T06:03:16.189Z,13.73
2022-10-16T06:05:48.111Z,13.77
2022-10-16T06:08:22.731Z,13.76
2022-10-16T06:11:10.886Z,13.76
2022-10-16T06:13:43.669Z,13.66
2022-10-16T06:16:15.709Z,13.67
2022-10-16T06:18:47.863Z,13.70
2022-10-16T06:21:26.014Z,13.73
2022-10-16T06:23:58.969Z,13.72
2022-10-16T06:26:32.714Z,13.77
2022-10-16T06:29:04.709Z,13.82
2022-10-16T06:31:36.752Z,13.81
2022-10-16T06:34:12.569Z,13.87
2022-10-16T06:36:44.579Z,13.94
2022-10-16T06:39:16.508Z,13.92
2022-10-16T06:41:48.463Z,13.89
2022-10-16T06:44:20.584Z,13.85
2022-10-16T06:46:52.622Z,13.88
2022-10-16T06:49:24.885Z,13.86
2022-10-16T06:51:56.852Z,13.89
2022-10-16T06:54:29.373Z,13.95
2022-10-16T06:57:02.833Z,13.98
2022-10-16T06:59:34.741Z,14.01
2022-10-16T07:02:08.088Z,14.03
2022-10-16T07:04:40.012Z,14.03
2022-10-16T07:07:11.978Z,14.07
2022-10-16T07:09:43.878Z,14.15
2022-10-16T07:12:15.814Z,14.20
2022-10-16T07:14:47.815Z,14.18
2022-10-16T07:17:19.706Z,14.21
2022-10-16T07:19:54.197Z,14.26
2022-10-16T07:22:26.354Z,14.36
2022-10-16T07:24:58.599Z,14.43
2022-10-16T07:27:30.584Z,14.54
2022-10-16T07:30:05.098Z,14.62
2022-10-16T07:32:40.232Z,14.57
2022-10-16T07:35:12.199Z,14.74
2022-10-16T07:37:47.861Z,14.81
2022-10-16T07:40:19.812Z,14.86
2022-10-16T07:42:51.746Z,14.87
2022-10-16T07:45:23.679Z,14.92
2022-10-16T07:47:56.530Z,14.86
2022-10-16T07:50:28.481Z,14.90
2022-10-16T07:53:00.391Z,14.95
2022-10-16T07:55:32.316Z,14.97
2022-10-16T07:58:05.001Z,14.86
2022-10-16T08:00:38.434Z,14.76
2022-10-16T08:03:10.358Z,14.85
2022-10-16T08:05:42.412Z,15.04
2022-10-16T08:08:19.164Z,15.14
2022-10-16T08:10:51.140Z,15.22
2022-10-16T08:13:23.602Z,15.42
2022-10-16T08:15:56.331Z,15.56
2022-10-16T08:18:28.413Z,15.58
2022-10-16T08:21:01.406Z,15.55
2022-10-16T08:23:34.024Z,15.69
2022-10-16T08:26:08.822Z,15.71
2022-10-16T08:28:40.886Z,15.69
2022-10-16T08:34:07.904Z,15.84
2022-10-16T08:36:40.028Z,15.79
2022-10-16T08:39:12.056Z,15.83
2022-10-16T08:42:34.503Z,15.87
2022-10-16T08:45:20.989Z,15.94
2022-10-16T08:48:24.219Z,16.10
2022-10-16T08:50:56.525Z,15.99
2022-10-16T08:53:59.527Z,16.01
2022-10-16T08:56:35.192Z,16.09
2022-10-16T08:59:12.206Z,15.96
2022-10-16T09:01:51.295Z,15.94
2022-10-16T09:04:57.449Z,16.04
2022-10-16T09:07:39.836Z,16.08
2022-10-16T09:10:36.152Z,16.15
2022-10-16T09:13:49.988Z,16.19
2022-10-16T09:16:38.098Z,16.26
2022-10-16T09:20:04.887Z,16.26
2022-10-16T09:22:37.284Z,16.26
2022-10-16T09:25:27.400Z,16.41
2022-10-16T09:27:59.569Z,16.61
2022-10-16T09:30:31.612Z,16.80
2022-10-16T09:33:04.082Z,16.98
2022-10-16T09:35:53.004Z,17.24
2022-10-16T09:38:34.352Z,17.41
2022-10-16T09:41:23.345Z,17.31
2022-10-16T09:44:01.537Z,17.55
2022-10-16T09:46:36.310Z,17.52
2022-10-16T09:49:27.084Z,17.61
2022-10-16T09:52:15.812Z,18.01
2022-10-16T09:54:56.100Z,18.43
2022-10-16T09:57:29.119Z,18.39
2022-10-16T10:00:11.008Z,18.32
2022-10-16T10:02:43.041Z,18.21
2022-10-16T10:05:29.942Z,18.30
2022-10-16T10:08:09.442Z,18.34
2022-10-16T10:10:44.097Z,19.07
2022-10-16T10:13:24.060Z,20.81
2022-10-16T10:15:56.249Z,22.74
2022-10-16T10:18:28.291Z,24.16
2022-10-16T10:21:02.588Z,25.86
2022-10-16T10:23:34.604Z,26.76
2022-10-16T10:26:22.393Z,25.52
2022-10-16T10:29:12.453Z,23.33
2022-10-16T10:32:15.878Z,21.57
2022-10-16T10:35:14.270Z,21.04
2022-10-16T10:37:55.149Z,20.37
2022-10-16T10:40:51.119Z,19.69
2022-10-16T10:43:28.991Z,19.42
2022-10-16T10:46:06.040Z,19.30
2022-10-16T10:49:16.371Z,19.26
2022-10-16T10:52:06.358Z,19.22
2022-10-16T10:54:51.712Z,19.30
2022-10-16T10:57:29.580Z,19.26
2022-10-16T11:00:47.915Z,19.16
2022-10-16T11:04:05.136Z,19.22
2022-10-16T11:06:51.730Z,19.12
2022-10-16T11:09:33.756Z,18.96
2022-10-16T11:12:13.326Z,18.97
2022-10-16T11:15:11.716Z,18.86
2022-10-16T11:17:49.888Z,18.90
2022-10-16T11:20:26.961Z,18.92
2022-10-16T11:23:32.314Z,18.87
2022-10-16T11:26:14.652Z,18.74
2022-10-16T11:28:59.386Z,18.71
2022-10-16T11:31:45.088Z,18.76
2022-10-16T11:34:27.440Z,18.92
2022-10-16T11:37:11.868Z,18.98
2022-10-16T11:39:45.411Z,18.93
2022-10-16T11:42:43.905Z,19.23
2022-10-16T11:45:51.258Z,19.42
2022-10-16T11:49:00.720Z,19.22
2022-10-16T11:51:46.733Z,19.27
2022-10-16T11:54:48.673Z,19.29
2022-10-16T11:57:37.840Z,19.46
2022-10-16T12:00:41.151Z,19.56
2022-10-16T12:03:32.307Z,19.57
2022-10-16T12:06:37.462Z,19.06
2022-10-16T12:09:38.980Z,18.97
2022-10-16T12:12:37.125Z,19.12
2022-10-16T12:15:57.578Z,19.29
2022-10-16T12:18:27.322Z,19.29
2022-10-16T12:21:05.665Z,19.10
2022-10-16T12:23:53.653Z,19.07
2022-10-16T12:26:31.821Z,19.16
2022-10-16T12:29:24.470Z,19.12
2022-10-16T12:31:58.326Z,19.21
2022-10-16T12:34:40.356Z,19.42
2022-10-16T12:37:33.305Z,19.58
2022-10-16T12:40:37.401Z,19.60
2022-10-16T12:43:38.589Z,19.32
2022-10-16T12:46:10.432Z,19.19
2022-10-16T12:48:49.441Z,19.03
2022-10-16T12:51:33.965Z,19.17
2022-10-16T12:54:31.574Z,19.06
2022-10-16T12:57:42.424Z,19.03
2022-10-16T13:00:33.308Z,18.97
2022-10-16T13:03:49.429Z,18.77
2022-10-16T13:06:52.180Z,18.59
2022-10-16T13:09:59.483Z,18.65
2022-10-16T13:12:56.907Z,18.79
2022-10-16T13:15:51.640Z,18.79
2022-10-16T13:19:11.186Z,18.87
2022-10-16T13:22:03.338Z,18.97
2022-10-16T13:24:58.256Z,19.08
2022-10-16T13:27:57.757Z,19.36
2022-10-16T13:30:44.972Z,19.42
2022-10-16T13:33:36.107Z,19.32
2022-10-16T13:36:08.297Z,19.40
2022-10-16T13:38:40.286Z,19.32
2022-10-16T13:41:18.672Z,19.19
2022-10-16T13:43:54.222Z,18.96
2022-10-16T13:46:27.451Z,19.02
2022-10-16T13:49:13.967Z,19.00
2022-10-16T13:51:57.896Z,18.93
2022-10-16T13:54:30.031Z,19.05
2022-10-16T13:57:26.204Z,19.06
2022-10-16T13:59:59.358Z,19.02
2022-10-16T14:02:40.877Z,18.96
2022-10-16T14:05:15.979Z,18.96
2022-10-16T14:07:52.935Z,18.96
2022-10-16T14:10:31.352Z,19.03
2022-10-16T14:13:07.070Z,18.96
2022-10-16T14:15:39.237Z,18.80
2022-10-16T14:18:23.069Z,18.87
2022-10-16T14:20:58.415Z,18.89
2022-10-16T14:23:38.481Z,18.93
2022-10-16T14:26:10.343Z,18.94
2022-10-16T14:28:44.384Z,18.92
2022-10-16T14:31:34.588Z,18.83
2022-10-16T14:34:25.659Z,18.85
2022-10-16T14:37:02.010Z,18.85
2022-10-16T14:39:35.124Z,18.86
2022-10-16T14:42:18.802Z,18.84
2022-10-16T14:44:56.889Z,18.80
2022-10-16T14:47:29.660Z,18.78
2022-10-16T14:50:01.889Z,18.77
2022-10-16T14:52:34.746Z,18.72
2022-10-16T14:55:08.314Z,18.65
2022-10-16T14:57:40.702Z,18.50
2022-10-16T15:00:24.764Z,18.52
2022-10-16T15:02:56.773Z,18.57
2022-10-16T15:05:29.145Z,18.56
2022-10-16T15:08:01.146Z,18.51
2022-10-16T15:10:40.353Z,18.41
2022-10-16T15:13:15.399Z,18.43
2022-10-16T15:15:50.349Z,18.40
2022-10-16T15:18:23.233Z,18.37
2022-10-16T15:20:55.267Z,18.30
2022-10-16T15:23:27.432Z,18.28
2022-10-16T15:26:00.496Z,18.24
2022-10-16T15:28:32.477Z,18.18
2022-10-16T15:31:06.456Z,18.10
2022-10-16T15:33:39.953Z,18.15
2022-10-16T15:36:12.353Z,18.14
2022-10-16T15:38:45.076Z,18.03
2022-10-16T15:41:17.037Z,17.99
2022-10-16T15:43:52.829Z,17.98
2022-10-16T15:46:25.611Z,17.96
2022-10-16T15:48:59.519Z,17.91
2022-10-16T15:51:34.141Z,17.85
2022-10-16T15:54:06.526Z,17.72
2022-10-16T15:56:38.825Z,17.68
2022-10-16T15:59:10.754Z,17.62
2022-10-16T16:01:44.257Z,17.51
2022-10-16T16:04:42.233Z,17.46
2022-10-16T16:07:10.030Z,17.39
2022-10-16T16:09:42.067Z,17.33
2022-10-16T16:12:14.015Z,17.27
2022-10-16T16:14:47.235Z,17.18
2022-10-16T16:17:19.421Z,17.06
2022-10-16T16:19:52.146Z,16.92
2022-10-16T16:22:24.235Z,16.83
2022-10-16T16:24:56.247Z,16.70
2022-10-16T16:27:31.010Z,16.63
2022-10-16T16:30:04.634Z,16.51
2022-10-16T16:32:36.950Z,16.43
2022-10-16T16:35:09.094Z,16.35
2022-10-16T16:37:41.093Z,16.27
2022-10-16T16:40:13.058Z,16.18
2022-10-16T16:42:45.091Z,16.11
2022-10-16T16:45:17.146Z,16.02
2022-10-16T16:47:49.135Z,15.95
2022-10-16T16:50:21.061Z,15.88
2022-10-16T16:52:53.056Z,15.81
2022-10-16T16:55:24.972Z,15.72
2022-10-16T16:57:57.820Z,15.68
2022-10-16T17:00:30.144Z,15.60
2022-10-16T17:03:02.118Z,15.54
2022-10-16T17:05:34.063Z,15.49
2022-10-16T17:08:09.609Z,15.45
2022-10-16T17:10:45.249Z,15.39
2022-10-16T17:13:17.443Z,15.32
2022-10-16T17:15:51.822Z,15.26
2022-10-16T17:18:25.266Z,15.21
2022-10-16T17:21:02.068Z,15.16
2022-10-16T17:23:35.400Z,15.12
2022-10-16T17:26:16.273Z,15.07
2022-10-16T17:28:53.785Z,15.01
2022-10-16T17:31:32.981Z,14.96
2022-10-16T17:34:08.062Z,14.93
2022-10-16T17:36:44.291Z,14.89
2022-10-16T17:39:20.545Z,14.87
2022-10-16T17:41:52.487Z,14.84
2022-10-16T17:44:24.524Z,14.81
2022-10-16T17:46:56.525Z,14.79
2022-10-16T17:49:28.649Z,14.76
2022-10-16T17:52:03.078Z,14.73
2022-10-16T17:54:35.046Z,14.67
2022-10-16T17:57:07.011Z,14.63
2022-10-16T17:59:38.968Z,14.60
2022-10-16T18:02:11.996Z,14.59
2022-10-16T18:04:44.174Z,14.55
2022-10-16T18:07:16.996Z,14.53
2022-10-16T18:10:09.894Z,14.51
2022-10-16T18:12:41.317Z,14.49
2022-10-16T18:15:13.458Z,14.51
2022-10-16T18:17:45.408Z,14.45
2022-10-16T18:20:17.525Z,14.43
2022-10-16T18:22:49.591Z,14.40
2022-10-16T18:25:21.580Z,14.38
2022-10-16T18:27:53.488Z,14.38
2022-10-16T18:30:25.442Z,14.37
2022-10-16T18:32:57.383Z,14.36
2022-10-16T18:35:29.352Z,14.35
2022-10-16T18:38:01.263Z,14.33
2022-10-16T18:40:36.007Z,14.30
2022-10-16T18:43:07.994Z,14.26
2022-10-16T18:45:40.132Z,14.25
2022-10-16T18:48:12.153Z,14.27
2022-10-16T18:50:44.044Z,14.27
2022-10-16T18:53:16.086Z,14.25
2022-10-16T18:55:54.239Z,14.25
2022-10-16T18:58:26.168Z,14.24
2022-10-16T19:01:05.293Z,14.24
2022-10-16T19:03:38.876Z,14.26
2022-10-16T19:06:15.224Z,14.24
2022-10-16T19:08:47.164Z,14.25
2022-10-16T19:11:22.387Z,14.28
2022-10-16T19:13:56.815Z,14.25
2022-10-16T19:16:32.792Z,14.25
2022-10-16T19:19:07.920Z,14.23
2022-10-16T19:21:40.983Z,14.23
2022-10-16T19:24:15.507Z,14.25
2022-10-16T19:26:48.400Z,14.27
2022-10-16T19:29:20.467Z,14.25
2022-10-16T19:31:52.379Z,14.25
2022-10-16T19:34:24.333Z,14.24
2022-10-16T19:36:56.764Z,14.24
2022-10-16T19:39:28.713Z,14.23
2022-10-16T19:42:00.849Z,14.24
2022-10-16T19:44:32.864Z,14.21
2022-10-16T19:47:04.885Z,14.20
2022-10-16T19:49:36.872Z,14.23
2022-10-16T19:52:08.845Z,14.24
2022-10-16T19:54:40.892Z,14.23
2022-10-16T19:57:12.968Z,14.23
2022-10-16T19:59:45.799Z,14.22
2022-10-16T20:02:17.883Z,14.21
2022-10-16T20:04:49.840Z,14.20
2022-10-16T20:07:23.072Z,14.20
2022-10-16T20:09:54.986Z,14.21
2022-10-16T20:12:26.943Z,14.23
2022-10-16T20:14:58.934Z,14.25
2022-10-16T20:17:30.983Z,14.27
2022-10-16T20:20:02.986Z,14.29
2022-10-16T20:22:34.884Z,14.32
2022-10-16T20:25:10.005Z,14.34
2022-10-16T20:27:42.225Z,14.37
2022-10-16T20:30:14.163Z,14.35
2022-10-16T20:32:46.234Z,14.35
2022-10-16T20:35:18.473Z,14.34
2022-10-16T20:37:50.698Z,14.32
2022-10-16T20:40:22.703Z,14.32
2022-10-16T20:42:54.694Z,14.32
2022-10-16T20:45:29.840Z,14.33
2022-10-16T20:48:01.792Z,14.32
2022-10-16T20:50:34.064Z,14.35
2022-10-16T20:53:07.163Z,14.33
2022-10-16T20:55:39.098Z,14.34
2022-10-16T20:58:12.664Z,14.36
2022-10-16T21:00:44.851Z,14.35
2022-10-16T21:03:16.909Z,14.34
2022-10-16T21:05:48.865Z,14.35
2022-10-16T21:08:20.775Z,14.38
2022-10-16T21:10:52.694Z,14.42
2022-10-16T21:13:28.178Z,14.45
2022-10-16T21:16:03.596Z,14.46
2022-10-16T21:18:35.603Z,14.44
2022-10-16T21:21:07.591Z,14.46
2022-10-16T21:23:39.560Z,14.46
2022-10-16T21:26:11.501Z,14.45
2022-10-16T21:28:43.552Z,14.48
2022-10-16T21:31:19.801Z,14.53
2022-10-16T21:33:52.869Z,14.56
2022-10-16T21:36:28.808Z,14.59
2022-10-16T21:39:09.172Z,14.61
2022-10-16T21:41:42.464Z,14.58
2022-10-16T21:44:15.039Z,14.65
2022-10-16T21:46:47.366Z,14.67
2022-10-16T21:49:19.802Z,14.72
2022-10-16T21:51:51.922Z,14.72
2022-10-16T21:54:24.662Z,14.72
2022-10-16T21:56:57.033Z,14.66
2022-10-16T21:59:29.069Z,14.68
2022-10-16T22:02:03.257Z,14.67
2022-10-16T22:04:35.440Z,14.66
2022-10-16T22:07:07.443Z,14.65
2022-10-16T22:09:39.334Z,14.64
2022-10-16T22:12:11.238Z,14.51
2022-10-16T22:14:43.149Z,14.51
2022-10-16T22:17:15.098Z,14.49
2022-10-16T22:19:47.065Z,14.55
2022-10-16T22:22:19.015Z,14.57
2022-10-16T22:24:50.925Z,14.58
2022-10-16T22:27:23.313Z,14.59
2022-10-16T22:29:55.199Z,14.62
2022-10-16T22:32:27.089Z,14.65
2022-10-16T22:34:59.014Z,14.62
2022-10-16T22:37:30.924Z,14.63
2022-10-16T22:40:02.877Z,14.63
2022-10-16T22:42:34.794Z,14.68
2022-10-16T22:45:07.178Z,14.68
2022-10-16T22:47:39.101Z,14.69
2022-10-16T22:50:11.025Z,14.70
2022-10-16T22:52:42.968Z,14.58
2022-10-16T22:55:14.956Z,14.62
2022-10-16T22:57:46.916Z,14.67
2022-10-16T23:00:20.032Z,14.68
2022-10-16T23:02:52.018Z,14.71
2022-10-16T23:05:23.959Z,14.74
2022-10-16T23:07:55.872Z,14.75
2022-10-16T23:10:29.874Z,14.74
2022-10-16T23:13:01.835Z,14.75
2022-10-16T23:15:33.802Z,14.78
2022-10-16T23:18:05.774Z,14.74
2022-10-16T23:20:41.329Z,14.68
2022-10-16T23:23:13.222Z,14.69
2022-10-16T23:25:49.694Z,14.71
2022-10-16T23:28:21.649Z,14.68
2022-10-16T23:30:53.571Z,14.71
2022-10-16T23:33:25.477Z,14.69
2022-10-16T23:35:57.398Z,14.73
2022-10-16T23:38:29.477Z,14.77
2022-10-16T23:41:01.748Z,14.79
2022-10-16T23:43:33.876Z,14.83
2022-10-16T23:46:08.800Z,14.85
2022-10-16T23:48:41.375Z,14.84
2022-10-16T23:51:13.548Z,14.81
2022-10-16T23:53:45.556Z,14.77
2022-10-16T23:56:17.504Z,14.68
2022-10-16T23:58:49.558Z,14.64
